Time;durP1;ratioP1;P1;durP2;ratioP2;P2;SDS_P1;SDS_P2;PMS_P1;PMS_P2;Temp;Humidity;BMP_temperature;BMP_pressure;BME280_temperature;BME280_humidity;BME280_pressure;Samples;Min_cycle;Max_cycle;Signal;HPM_P1;HPM_P2
2022/04/11 00:01:47;;;;;;;;;;;5.00;1.00;;;;;;10329351;28;84836;-47
2022/04/11 00:06:48;;;;;;;;;;;4.90;1.00;;;;;;10352870;28;84875;-47
2022/04/11 00:11:49;;;;;;;;;;;4.80;1.00;;;;;;10368766;28;85037;-50
2022/04/11 00:16:49;;;;;;;;;;;4.80;1.00;;;;;;10335238;28;84177;-49
2022/04/11 00:21:50;;;;;;;;;;;4.80;1.00;;;;;;10326600;28;85563;-47
2022/04/11 00:26:50;;;;;;;;;;;4.70;1.00;;;;;;10326010;28;84879;-46
2022/04/11 00:31:51;;;;;;;;;;;4.70;1.00;;;;;;10327481;28;84839;-49
2022/04/11 00:36:51;;;;;;;;;;;4.60;1.00;;;;;;10324920;28;84810;-50
2022/04/11 00:41:52;;;;;;;;;;;4.60;1.00;;;;;;10325736;28;85834;-48
2022/04/11 00:46:52;;;;;;;;;;;4.60;1.00;;;;;;10323872;28;85826;-50
2022/04/11 00:51:53;;;;;;;;;;;4.50;1.00;;;;;;10325450;28;84959;-45
2022/04/11 00:56:54;;;;;;;;;;;4.40;1.00;;;;;;10322313;28;85969;-47
2022/04/11 01:01:55;;;;;;;;;;;4.40;1.00;;;;;;10325716;28;84930;-47
2022/04/11 01:06:56;;;;;;;;;;;4.40;1.00;;;;;;10323315;28;86878;-47
2022/04/11 01:11:56;;;;;;;;;;;4.20;1.00;;;;;;10307275;28;86886;-47
2022/04/11 01:16:58;;;;;;;;;;;4.10;1.00;;;;;;10322493;28;85986;-47
2022/04/11 01:21:59;;;;;;;;;;;4.10;1.00;;;;;;10324147;28;85997;-48
2022/04/11 01:27:00;;;;;;;;;;;4.00;1.00;;;;;;10322312;28;86711;-50
2022/04/11 01:32:03;;;;;;;;;;;4.00;1.00;;;;;;10322817;28;86616;-46
2022/04/11 01:37:04;;;;;;;;;;;4.00;1.00;;;;;;10306331;28;85175;-47
2022/04/11 01:42:05;;;;;;;;;;;3.90;1.00;;;;;;10323699;28;86765;-46
2022/04/11 01:47:06;;;;;;;;;;;3.90;1.00;;;;;;10305735;28;86437;-48
2022/04/11 01:52:07;;;;;;;;;;;3.80;1.00;;;;;;10307994;28;85848;-44
2022/04/11 01:57:09;;;;;;;;;;;3.80;1.00;;;;;;10325532;28;86791;-46
2022/04/11 02:02:10;;;;;;;;;;;3.70;1.00;;;;;;10312355;28;86057;-47
2022/04/11 02:07:10;;;;;;;;;;;3.60;1.00;;;;;;10330461;28;84836;-47
2022/04/11 02:12:11;;;;;;;;;;;3.60;1.00;;;;;;10331549;28;84725;-48
2022/04/11 02:17:12;;;;;;;;;;;3.50;1.00;;;;;;10395020;22;84408;-49
2022/04/11 02:22:13;;;;;;;;;;;3.50;1.00;;;;;;10396465;28;86048;-52
2022/04/11 02:27:14;;;;;;;;;;;3.40;1.00;;;;;;10369528;28;85092;-52
2022/04/11 02:32:14;;;;;;;;;;;3.50;1.00;;;;;;10355375;28;85972;-49
2022/04/11 02:37:15;;;;;;;;;;;3.50;1.00;;;;;;10354223;28;87169;-51
2022/04/11 02:42:24;;;;;;;;;;;3.60;1.00;;;;;;10348019;28;84960;-55
2022/04/11 02:47:27;;;;;;;;;;;3.70;1.00;;;;;;10365665;28;85729;-50
2022/04/11 02:52:29;;;;;;;;;;;3.60;1.00;;;;;;10372268;28;85740;-51
2022/04/11 02:57:30;;;;;;;;;;;3.60;1.00;;;;;;10355866;28;86601;-51
2022/04/11 03:02:30;;;;;;;;;;;3.60;1.00;;;;;;10370329;28;86655;-49
2022/04/11 03:07:31;;;;;;;;;;;3.70;1.00;;;;;;10352155;28;86864;-51
2022/04/11 03:12:33;;;;;;;;;;;3.50;1.00;;;;;;10353044;28;85756;-49
2022/04/11 03:17:34;;;;;;;;;;;3.50;1.00;;;;;;10352083;28;86660;-50
2022/04/11 03:22:35;;;;;;;;;;;3.50;1.00;;;;;;10353008;28;85886;-55
2022/04/11 03:27:40;;;;;;;;;;;3.60;1.00;;;;;;10370643;28;84121;-53
2022/04/11 03:32:41;;;;;;;;;;;3.60;1.00;;;;;;10353562;28;85959;-55
2022/04/11 03:37:45;;;;;;;;;;;3.70;1.00;;;;;;10352189;28;86620;-51
2022/04/11 03:42:54;;;;;;;;;;;3.70;1.00;;;;;;10353339;28;86872;-51
2022/04/11 03:47:55;;;;;;;;;;;3.70;1.00;;;;;;10352091;28;85754;-50
2022/04/11 03:53:00;;;;;;;;;;;3.70;1.00;;;;;;10352856;28;85806;-51
2022/04/11 03:58:01;;;;;;;;;;;3.70;1.00;;;;;;10351723;28;85605;-50
2022/04/11 04:03:05;;;;;;;;;;;3.60;1.00;;;;;;10351225;28;86407;-48
2022/04/11 04:08:07;;;;;;;;;;;3.60;1.00;;;;;;10346638;28;86604;-45
2022/04/11 04:13:08;;;;;;;;;;;3.70;1.00;;;;;;10358202;28;86808;-48
2022/04/11 04:18:12;;;;;;;;;;;3.70;1.00;;;;;;10347194;28;86857;-47
2022/04/11 04:23:13;;;;;;;;;;;3.70;1.00;;;;;;10349029;28;85906;-49
2022/04/11 04:28:17;;;;;;;;;;;3.60;1.00;;;;;;10347525;28;86200;-49
2022/04/11 04:33:18;;;;;;;;;;;3.60;1.00;;;;;;10321393;28;86982;-49
2022/04/11 04:38:22;;;;;;;;;;;3.60;1.00;;;;;;10347510;28;86390;-49
2022/04/11 04:43:27;;;;;;;;;;;3.60;1.00;;;;;;10348735;28;85620;-52
2022/04/11 04:48:28;;;;;;;;;;;3.50;1.00;;;;;;10347611;28;86772;-48
2022/04/11 04:53:29;;;;;;;;;;;3.40;1.00;;;;;;10366019;28;85897;-51
2022/04/11 04:58:33;;;;;;;;;;;3.40;1.00;;;;;;10347243;28;86797;-54
2022/04/11 05:03:35;;;;;;;;;;;3.50;1.00;;;;;;10348058;28;86694;-48
2022/04/11 05:08:39;;;;;;;;;;;3.40;1.00;;;;;;10365455;28;85173;-47
2022/04/11 05:13:42;;;;;;;;;;;3.40;1.00;;;;;;10347014;28;86608;-52
2022/04/11 05:18:44;;;;;;;;;;;3.30;1.00;;;;;;10346730;28;85540;-50
2022/04/11 05:23:46;;;;;;;;;;;3.40;1.00;;;;;;10347535;28;85696;-52
2022/04/11 05:28:48;;;;;;;;;;;3.40;1.00;;;;;;10346643;28;86717;-50
2022/04/11 05:33:49;;;;;;;;;;;3.60;1.00;;;;;;10348076;28;85800;-53
2022/04/11 05:38:51;;;;;;;;;;;3.80;1.00;;;;;;10346710;28;85897;-49
2022/04/11 05:43:52;;;;;;;;;;;3.80;1.00;;;;;;10340552;28;86769;-50
2022/04/11 05:48:57;;;;;;;;;;;3.80;1.00;;;;;;10373046;28;86833;-47
2022/04/11 05:53:57;;;;;;;;;;;3.80;1.00;;;;;;10375904;28;86355;-51
2022/04/11 05:58:59;;;;;;;;;;;3.80;1.00;;;;;;10353997;28;86033;-49
2022/04/11 06:04:00;;;;;;;;;;;3.80;1.00;;;;;;10342065;28;86840;-49
2022/04/11 06:09:04;;;;;;;;;;;3.90;1.00;;;;;;10348454;28;86672;-50
2022/04/11 06:14:04;;;;;;;;;;;4.20;1.00;;;;;;10345488;28;86835;-51
2022/04/11 06:19:05;;;;;;;;;;;4.40;1.00;;;;;;10345101;28;86767;-51
2022/04/11 06:24:06;;;;;;;;;;;4.70;1.00;;;;;;10346573;28;86415;-43
2022/04/11 06:29:07;;;;;;;;;;;4.90;1.00;;;;;;10344659;28;85545;-52
2022/04/11 06:34:08;;;;;;;;;;;5.10;1.00;;;;;;10345853;28;86009;-49
2022/04/11 06:39:09;;;;;;;;;;;5.60;1.00;;;;;;10344645;28;85548;-50
2022/04/11 06:44:15;;;;;;;;;;;5.80;1.00;;;;;;10347242;28;86014;-53
2022/04/11 06:49:30;;;;;;;;;;;6.10;1.00;;;;;;10349208;28;85819;-50
2022/04/11 06:54:31;;;;;;;;;;;6.20;99.90;;;;;;10351521;28;85768;-50
2022/04/11 06:59:32;;;;;;;;;;;6.30;99.90;;;;;;10369491;28;84917;-50
2022/04/11 07:04:32;;;;;;;;;;;6.40;99.90;;;;;;10370089;28;85695;-50
2022/04/11 07:09:33;;;;;;;;;;;6.40;99.90;;;;;;10368665;28;84354;-50
2022/04/11 07:14:33;;;;;;;;;;;6.60;99.90;;;;;;10369625;28;84913;-50
2022/04/11 07:19:34;;;;;;;;;;;6.70;99.90;;;;;;10368515;28;85130;-50
2022/04/11 07:24:37;;;;;;;;;;;6.90;99.90;;;;;;10369407;28;84853;-52
2022/04/11 07:29:38;;;;;;;;;;;7.10;99.90;;;;;;10369783;28;84945;-48
2022/04/11 07:34:40;;;;;;;;;;;7.40;99.90;;;;;;10370091;28;84030;-50
2022/04/11 07:39:41;;;;;;;;;;;7.70;99.90;;;;;;10368692;28;84110;-49
2022/04/11 07:44:41;;;;;;;;;;;8.10;1.00;;;;;;10368214;28;84897;-50
2022/04/11 07:49:42;;;;;;;;;;;8.70;1.00;;;;;;10349280;28;84558;-52
2022/04/11 07:54:43;;;;;;;;;;;9.30;1.00;;;;;;10365548;28;84848;-50
2022/04/11 07:59:43;;;;;;;;;;;10.50;1.00;;;;;;10376315;28;84280;-52
2022/04/11 08:04:44;;;;;;;;;;;11.10;30.80;;;;;;10372211;28;84658;-51
2022/04/11 08:09:44;;;;;;;;;;;11.80;1.00;;;;;;10367370;28;84133;-53
2022/04/11 08:14:45;;;;;;;;;;;12.40;18.10;;;;;;10381982;22;84240;-49
2022/04/11 08:19:45;;;;;;;;;;;13.60;1.00;;;;;;10366082;28;84951;-47
2022/04/11 08:24:46;;;;;;;;;;;14.20;1.00;;;;;;10366238;28;84224;-50
2022/04/11 08:29:46;;;;;;;;;;;14.40;1.00;;;;;;10365439;28;84149;-47
2022/04/11 08:34:47;;;;;;;;;;;15.10;1.00;;;;;;10360653;28;87230;-52
2022/04/11 08:39:47;;;;;;;;;;;15.90;99.90;;;;;;10361851;28;84888;-52
2022/04/11 08:44:49;;;;;;;;;;;16.60;1.00;;;;;;10372639;28;84866;-49
2022/04/11 08:49:50;;;;;;;;;;;17.30;1.00;;;;;;10366490;28;84852;-49
2022/04/11 08:54:51;;;;;;;;;;;17.90;99.90;;;;;;10348002;28;84015;-54
2022/04/11 08:59:51;;;;;;;;;;;17.80;1.60;;;;;;10365438;28;84917;-50
2022/04/11 09:04:54;;;;;;;;;;;18.10;1.00;;;;;;10372629;28;84869;-50
2022/04/11 09:09:57;;;;;;;;;;;19.00;1.00;;;;;;10345450;28;84789;-52
2022/04/11 09:15:04;;;;;;;;;;;19.40;1.00;;;;;;10376234;28;84213;-48
2022/04/11 09:20:12;;;;;;;;;;;19.60;1.00;;;;;;10390848;28;87216;-50
2022/04/11 09:25:14;;;;;;;;;;;19.70;1.00;;;;;;10379426;28;84226;-54
2022/04/11 09:30:31;;;;;;;;;;;19.30;1.00;;;;;;10385337;28;84177;-52
2022/04/11 09:35:32;;;;;;;;;;;18.80;1.00;;;;;;10391179;28;86028;-48
2022/04/11 09:40:52;;;;;;;;;;;18.50;1.00;;;;;;10375432;28;84311;-50
2022/04/11 09:45:53;;;;;;;;;;;18.40;1.00;;;;;;10357379;28;84508;-49
2022/04/11 09:50:54;;;;;;;;;;;17.90;99.90;;;;;;10329038;28;84458;-48
2022/04/11 09:55:55;;;;;;;;;;;18.90;99.90;;;;;;10364681;28;84114;-50
2022/04/11 10:00:57;;;;;;;;;;;19.60;99.90;;;;;;10366962;28;84295;-52
2022/04/11 10:05:58;;;;;;;;;;;20.00;99.90;;;;;;10366372;28;84252;-52
2022/04/11 10:10:58;;;;;;;;;;;20.80;99.90;;;;;;10370947;28;84388;-52
2022/04/11 10:15:59;;;;;;;;;;;21.30;99.90;;;;;;10372199;28;85047;-50
2022/04/11 10:21:03;;;;;;;;;;;21.50;99.90;;;;;;10357804;28;84949;-55
2022/04/11 10:26:12;;;;;;;;;;;20.70;43.10;;;;;;10336754;28;84979;-49
2022/04/11 10:31:14;;;;;;;;;;;21.10;19.10;;;;;;10378159;28;84809;-52
2022/04/11 10:36:34;;;;;;;;;;;21.50;1.00;;;;;;10415349;28;84209;-51
2022/04/11 10:41:54;;;;;;;;;;;21.30;1.00;;;;;;10374479;28;84391;-53
2022/04/11 10:47:13;;;;;;;;;;;21.50;1.00;;;;;;10344646;28;84862;-52
2022/04/11 10:52:34;;;;;;;;;;;21.80;1.00;;;;;;10395844;28;84176;-53
2022/04/11 10:57:41;;;;;;;;;;;21.80;1.00;;;;;;10374905;28;86579;-52
2022/04/11 11:02:48;;;;;;;;;;;22.20;1.00;;;;;;10396943;28;85160;-51
2022/04/11 11:07:48;;;;;;;;;;;22.40;1.00;;;;;;10381300;28;84241;-51
2022/04/11 11:12:49;;;;;;;;;;;22.70;1.00;;;;;;10372596;28;84892;-53
2022/04/11 11:17:56;;;;;;;;;;;22.80;1.00;;;;;;10383421;28;84317;-51
2022/04/11 11:23:12;;;;;;;;;;;22.60;1.00;;;;;;10380681;28;85318;-51
2022/04/11 11:28:13;;;;;;;;;;;22.00;1.00;;;;;;10369615;28;84731;-51
2022/04/11 11:33:15;;;;;;;;;;;22.50;1.00;;;;;;10380196;28;84665;-53
2022/04/11 11:38:19;;;;;;;;;;;21.90;1.00;;;;;;10385214;28;87044;-48
2022/04/11 11:43:23;;;;;;;;;;;21.60;1.00;;;;;;10351265;28;84991;-49
2022/04/11 11:48:25;;;;;;;;;;;22.00;1.00;;;;;;10369365;28;85040;-48
2022/04/11 11:53:38;;;;;;;;;;;21.50;1.00;;;;;;10371126;28;84812;-49
2022/04/11 11:58:39;;;;;;;;;;;21.40;1.00;;;;;;10370355;28;84778;-52
2022/04/11 12:09:03;;;;;;;;;;;22.50;1.00;;;;;;10370645;28;84923;-51
2022/04/11 12:14:05;;;;;;;;;;;21.90;1.00;;;;;;10371411;28;84123;-51
2022/04/11 12:19:06;;;;;;;;;;;22.10;1.00;;;;;;10351759;28;84923;-52
2022/04/11 12:24:09;;;;;;;;;;;21.60;1.00;;;;;;10372191;28;85011;-49
2022/04/11 12:29:14;;;;;;;;;;;22.10;1.00;;;;;;10370807;28;84123;-52
2022/04/11 12:34:15;;;;;;;;;;;21.60;1.00;;;;;;10370959;28;84943;-51
2022/04/11 12:39:15;;;;;;;;;;;21.80;1.00;;;;;;10351162;28;84942;-51
2022/04/11 12:44:17;;;;;;;;;;;21.10;1.00;;;;;;10371704;28;85237;-50
2022/04/11 12:49:18;;;;;;;;;;;21.00;1.00;;;;;;10367849;28;85000;-53
2022/04/11 12:54:19;;;;;;;;;;;20.70;1.00;;;;;;10369451;28;84609;-53
2022/04/11 12:59:46;;;;;;;;;;;20.90;1.00;;;;;;10393659;28;85092;-49
2022/04/11 13:04:54;;;;;;;;;;;21.20;1.00;;;;;;10395770;28;85041;-52
2022/04/11 13:09:54;;;;;;;;;;;22.00;1.00;;;;;;10351683;28;87165;-53
2022/04/11 13:14:55;;;;;;;;;;;21.90;1.00;;;;;;10369966;28;85954;-48
2022/04/11 13:19:56;;;;;;;;;;;22.00;1.00;;;;;;10368430;28;84767;-53
2022/04/11 13:24:57;;;;;;;;;;;21.70;1.00;;;;;;10369869;28;84825;-51
2022/04/11 13:29:57;;;;;;;;;;;21.10;1.00;;;;;;10369453;28;84157;-51
2022/04/11 13:34:58;;;;;;;;;;;20.70;1.00;;;;;;10369662;28;84143;-51
2022/04/11 13:39:58;;;;;;;;;;;20.20;1.00;;;;;;10368037;28;84955;-48
2022/04/11 13:44:59;;;;;;;;;;;20.20;1.00;;;;;;10367559;28;84093;-50
2022/04/11 13:49:59;;;;;;;;;;;20.80;1.00;;;;;;10369013;28;84067;-50
2022/04/11 13:55:00;;;;;;;;;;;21.20;1.00;;;;;;10376030;28;86546;-52
2022/04/11 14:00:00;;;;;;;;;;;21.20;1.00;;;;;;10375147;28;84989;-49
2022/04/11 14:05:01;;;;;;;;;;;21.10;1.00;;;;;;10374957;28;84026;-53
2022/04/11 14:10:02;;;;;;;;;;;21.00;1.00;;;;;;10374810;28;84868;-51
2022/04/11 14:15:02;;;;;;;;;;;21.60;1.00;;;;;;10399415;22;84831;-58
2022/04/11 14:20:03;;;;;;;;;;;21.00;1.00;;;;;;10412325;28;87012;-58
2022/04/11 14:25:04;;;;;;;;;;;20.50;1.00;;;;;;10397580;28;87271;-60
2022/04/11 14:30:05;;;;;;;;;;;20.80;1.00;;;;;;10416293;28;84725;-59
2022/04/11 14:35:06;;;;;;;;;;;20.70;1.00;;;;;;10416022;28;85116;-58
2022/04/11 14:40:07;;;;;;;;;;;20.10;1.00;;;;;;10415280;28;84790;-60
2022/04/11 14:45:08;;;;;;;;;;;19.50;1.00;;;;;;10416144;28;84885;-59
2022/04/11 14:50:08;;;;;;;;;;;19.10;1.00;;;;;;10415514;28;84007;-59
2022/04/11 14:55:09;;;;;;;;;;;19.00;1.00;;;;;;10415701;28;84046;-59
2022/04/11 15:00:10;;;;;;;;;;;17.90;1.00;;;;;;10414327;28;86582;-58
2022/04/11 15:05:10;;;;;;;;;;;17.50;1.00;;;;;;10415105;28;84126;-59
2022/04/11 15:10:13;;;;;;;;;;;17.00;1.00;;;;;;10402812;28;85066;-60
2022/04/11 15:15:14;;;;;;;;;;;16.70;1.00;;;;;;10421272;28;84937;-61
2022/04/11 15:20:15;;;;;;;;;;;16.40;1.00;;;;;;10421222;28;84225;-56
2022/04/11 15:25:15;;;;;;;;;;;16.20;1.00;;;;;;10446612;28;84194;-60
2022/04/11 15:30:16;;;;;;;;;;;16.30;1.00;;;;;;10401007;28;84186;-61
2022/04/11 15:35:18;;;;;;;;;;;16.20;1.00;;;;;;10405862;27;86185;-57
2022/04/11 15:40:19;;;;;;;;;;;16.00;1.00;;;;;;10420859;28;84970;-56
2022/04/11 15:45:22;;;;;;;;;;;16.10;1.00;;;;;;10406437;28;85043;-61
2022/04/11 15:50:22;;;;;;;;;;;16.00;1.00;;;;;;10413068;28;84784;-58
2022/04/11 15:55:23;;;;;;;;;;;15.80;1.00;;;;;;10412299;28;85050;-62
2022/04/11 16:00:24;;;;;;;;;;;15.70;1.00;;;;;;10409208;28;86622;-58
2022/04/11 16:05:25;;;;;;;;;;;15.60;1.00;;;;;;10425896;28;85470;-57
2022/04/11 16:10:26;;;;;;;;;;;15.40;1.00;;;;;;10421158;28;85394;-58
2022/04/11 16:15:27;;;;;;;;;;;15.40;1.00;;;;;;10413696;27;85581;-62
2022/04/11 16:20:27;;;;;;;;;;;15.20;1.00;;;;;;10417948;28;84289;-64
2022/04/11 16:25:28;;;;;;;;;;;15.20;1.00;;;;;;10410206;28;84802;-63
2022/04/11 16:30:28;;;;;;;;;;;15.10;1.00;;;;;;10411620;28;84540;-65
2022/04/11 16:35:29;;;;;;;;;;;15.10;1.00;;;;;;10415894;28;86911;-60
2022/04/11 16:40:32;;;;;;;;;;;15.00;1.00;;;;;;10432618;28;84005;-60
2022/04/11 16:45:33;;;;;;;;;;;15.00;1.00;;;;;;10424557;28;85599;-58
2022/04/11 16:50:33;;;;;;;;;;;15.00;1.00;;;;;;10402190;28;86840;-60
2022/04/11 16:55:34;;;;;;;;;;;14.90;1.00;;;;;;10415855;28;84334;-59
2022/04/11 17:00:34;;;;;;;;;;;14.80;1.00;;;;;;10397213;28;85958;-60
2022/04/11 17:05:35;;;;;;;;;;;14.80;1.00;;;;;;10409729;28;84270;-60
2022/04/11 17:10:39;;;;;;;;;;;14.80;99.90;;;;;;10412227;28;84015;-60
2022/04/11 17:21:03;;;;;;;;;;;14.70;99.90;;;;;;10412801;28;84151;-60
2022/04/11 17:26:04;;;;;;;;;;;14.60;1.00;;;;;;10409824;28;84313;-60
2022/04/11 17:31:05;;;;;;;;;;;14.50;1.00;;;;;;10414843;28;85268;-61
2022/04/11 17:36:06;;;;;;;;;;;14.40;1.00;;;;;;10419540;28;85018;-58
2022/04/11 17:41:07;;;;;;;;;;;14.40;99.90;;;;;;10445226;28;84793;-60
2022/04/11 17:46:07;;;;;;;;;;;14.20;99.90;;;;;;10395561;28;85093;-58
2022/04/11 17:51:09;;;;;;;;;;;14.10;1.00;;;;;;10398230;28;84491;-58
2022/04/11 17:56:10;;;;;;;;;;;14.00;1.00;;;;;;10408542;28;84238;-61
2022/04/11 18:01:10;;;;;;;;;;;13.90;99.90;;;;;;10409704;28;84980;-56
2022/04/11 18:06:11;;;;;;;;;;;13.80;99.90;;;;;;10408990;28;84312;-60
2022/04/11 18:11:11;;;;;;;;;;;13.70;99.90;;;;;;10408433;28;85851;-60
2022/04/11 18:16:12;;;;;;;;;;;13.60;99.90;;;;;;10410980;28;84925;-59
2022/04/11 18:21:12;;;;;;;;;;;13.50;99.90;;;;;;10413348;28;85099;-60
2022/04/11 18:26:13;;;;;;;;;;;13.50;1.00;;;;;;10450914;28;84976;-57
2022/04/11 18:31:32;;;;;;;;;;;13.30;99.90;;;;;;10440717;28;84090;-59
2022/04/11 18:36:33;;;;;;;;;;;13.20;99.90;;;;;;10446128;27;84122;-58
2022/04/11 18:41:34;;;;;;;;;;;13.10;1.00;;;;;;10428103;28;84903;-58
2022/04/11 18:46:39;;;;;;;;;;;13.00;1.00;;;;;;10424896;27;84640;-57
2022/04/11 18:51:40;;;;;;;;;;;12.80;1.00;;;;;;10423674;28;85637;-60
2022/04/11 18:56:41;;;;;;;;;;;12.70;1.00;;;;;;10450638;27;85129;-59
2022/04/11 19:01:41;;;;;;;;;;;12.60;1.00;;;;;;10437482;28;84227;-60
2022/04/11 19:06:43;;;;;;;;;;;12.50;99.90;;;;;;10412291;28;84893;-57
2022/04/11 19:11:44;;;;;;;;;;;12.50;1.00;;;;;;10430285;28;84771;-58
2022/04/11 19:16:45;;;;;;;;;;;12.40;1.00;;;;;;10398569;28;84652;-55
2022/04/11 19:21:45;;;;;;;;;;;12.40;1.00;;;;;;10439867;28;84801;-58
2022/04/11 19:26:47;;;;;;;;;;;12.30;99.90;;;;;;10443968;28;84104;-58
2022/04/11 19:31:47;;;;;;;;;;;12.30;99.90;;;;;;10365372;28;85932;-58
2022/04/11 19:36:49;;;;;;;;;;;12.20;1.00;;;;;;10403631;28;85367;-57
2022/04/11 19:41:51;;;;;;;;;;;12.10;1.00;;;;;;10425352;28;84690;-59
2022/04/11 19:46:51;;;;;;;;;;;12.00;99.90;;;;;;10435648;28;84263;-56
2022/04/11 19:51:52;;;;;;;;;;;11.90;99.90;;;;;;10390081;28;85866;-58
2022/04/11 19:56:52;;;;;;;;;;;11.80;99.90;;;;;;10447337;28;85028;-59
2022/04/11 20:01:53;;;;;;;;;;;11.70;99.90;;;;;;10436130;28;84871;-60
2022/04/11 20:06:54;;;;;;;;;;;11.70;1.00;;;;;;10424365;28;86568;-60
2022/04/11 20:11:54;;;;;;;;;;;11.60;1.00;;;;;;10415444;28;84552;-61
2022/04/11 20:16:55;;;;;;;;;;;11.50;1.00;;;;;;10394774;22;84350;-53
2022/04/11 20:21:55;;;;;;;;;;;11.50;1.00;;;;;;10367384;28;84921;-51
2022/04/11 20:26:56;;;;;;;;;;;11.40;1.00;;;;;;10367874;28;84941;-54
2022/04/11 20:31:57;;;;;;;;;;;11.40;1.00;;;;;;10362052;28;84979;-50
2022/04/11 20:36:57;;;;;;;;;;;11.30;1.00;;;;;;10364775;28;84901;-52
2022/04/11 20:41:58;;;;;;;;;;;11.20;1.00;;;;;;10368557;28;84670;-53
2022/04/11 20:46:59;;;;;;;;;;;11.10;99.90;;;;;;10367929;28;84937;-53
2022/04/11 20:52:00;;;;;;;;;;;11.10;99.90;;;;;;10368074;28;84311;-46
2022/04/11 20:57:01;;;;;;;;;;;11.00;99.90;;;;;;10367587;28;84990;-47
2022/04/11 21:02:02;;;;;;;;;;;11.00;99.90;;;;;;10367498;28;84172;-52
2022/04/11 21:07:02;;;;;;;;;;;10.90;99.90;;;;;;10366742;28;84445;-50
2022/04/11 21:12:03;;;;;;;;;;;10.90;1.00;;;;;;10367555;28;84687;-52
2022/04/11 21:17:04;;;;;;;;;;;10.80;1.00;;;;;;10366872;28;84950;-52
2022/04/11 21:22:05;;;;;;;;;;;10.80;1.00;;;;;;10365564;28;84846;-52
2022/04/11 21:27:10;;;;;;;;;;;10.80;1.00;;;;;;10374795;28;84400;-53
2022/04/11 21:32:10;;;;;;;;;;;10.70;1.00;;;;;;10367109;28;86380;-52
2022/04/11 21:37:11;;;;;;;;;;;10.60;94.10;;;;;;10347965;28;86145;-53
2022/04/11 21:42:11;;;;;;;;;;;10.60;99.90;;;;;;10368311;28;85267;-48
2022/04/11 21:47:12;;;;;;;;;;;10.60;99.90;;;;;;10362501;28;85642;-53
2022/04/11 21:52:12;;;;;;;;;;;10.50;99.90;;;;;;10357231;28;84629;-52
2022/04/11 21:57:15;;;;;;;;;;;10.40;1.00;;;;;;10367833;28;84800;-55
2022/04/11 22:02:15;;;;;;;;;;;10.40;1.00;;;;;;10385423;28;84957;-54
2022/04/11 22:07:18;;;;;;;;;;;10.30;1.00;;;;;;10367358;28;84603;-52
2022/04/11 22:12:18;;;;;;;;;;;10.30;1.00;;;;;;10351783;28;84961;-49
2022/04/11 22:17:19;;;;;;;;;;;10.30;1.00;;;;;;10357671;28;85638;-51
2022/04/11 22:22:19;;;;;;;;;;;10.20;1.00;;;;;;10374599;28;84472;-52
2022/04/11 22:27:21;;;;;;;;;;;10.20;99.90;;;;;;10354427;28;86263;-53
2022/04/11 22:32:21;;;;;;;;;;;10.10;90.50;;;;;;10372421;28;84974;-50
2022/04/11 22:37:22;;;;;;;;;;;10.00;99.90;;;;;;10372113;28;84267;-50
2022/04/11 22:42:23;;;;;;;;;;;9.90;99.90;;;;;;10372879;28;85170;-53
2022/04/11 22:47:23;;;;;;;;;;;9.90;1.00;;;;;;10361141;28;84965;-52
2022/04/11 22:52:24;;;;;;;;;;;9.90;1.00;;;;;;10353941;28;85772;-49
2022/04/11 22:57:25;;;;;;;;;;;9.80;1.00;;;;;;10371535;28;85078;-50
2022/04/11 23:02:25;;;;;;;;;;;9.80;1.00;;;;;;10373093;28;85060;-50
2022/04/11 23:07:26;;;;;;;;;;;9.80;1.00;;;;;;10371779;28;84956;-51
2022/04/11 23:12:26;;;;;;;;;;;9.70;1.00;;;;;;10373660;28;85533;-49
2022/04/11 23:17:27;;;;;;;;;;;9.70;99.90;;;;;;10372211;28;85314;-49
2022/04/11 23:22:27;;;;;;;;;;;9.70;99.90;;;;;;10372353;28;86856;-55
2022/04/11 23:27:28;;;;;;;;;;;9.70;99.90;;;;;;10370841;28;84880;-48
2022/04/11 23:32:29;;;;;;;;;;;9.60;99.90;;;;;;10372257;28;84118;-53
2022/04/11 23:37:30;;;;;;;;;;;9.60;1.00;;;;;;10337533;28;84799;-54
2022/04/11 23:42:31;;;;;;;;;;;9.50;1.00;;;;;;10349181;28;84642;-48
2022/04/11 23:47:31;;;;;;;;;;;9.50;1.00;;;;;;10376951;28;85031;-49
2022/04/11 23:52:32;;;;;;;;;;;9.50;1.00;;;;;;10374806;28;87038;-49
2022/04/11 23:57:32;;;;;;;;;;;9.50;1.00;;;;;;10375197;28;84935;-51
